sensor_id;sensor_type;location;lat;lon;timestamp;pressure;altitude;pressure_sealevel;temperature;humidity
70242;BME280;57631;52.218;0.108;2022-09-11T00:00:25;101915.95;;;20.05;59.19
70242;BME280;57631;52.218;0.108;2022-09-11T00:02:51;101909.69;;;20.27;58.63
70242;BME280;57631;52.218;0.108;2022-09-11T00:05:16;101909.58;;;20.68;56.92
70242;BME280;57631;52.218;0.108;2022-09-11T00:07:41;101910.32;;;20.92;56.85
70242;BME280;57631;52.218;0.108;2022-09-11T00:10:07;101912.70;;;20.63;57.13
70242;BME280;57631;52.218;0.108;2022-09-11T00:12:32;101917.21;;;20.40;57.31
70242;BME280;57631;52.218;0.108;2022-09-11T00:14:57;101918.17;;;20.38;57.23
70242;BME280;57631;52.218;0.108;2022-09-11T00:17:22;101919.06;;;20.64;56.78
70242;BME280;57631;52.218;0.108;2022-09-11T00:19:47;101921.16;;;21.02;56.10
70242;BME280;57631;52.218;0.108;2022-09-11T00:22:12;101918.53;;;20.95;55.88
70242;BME280;57631;52.218;0.108;2022-09-11T00:24:38;101923.73;;;20.36;57.29
70242;BME280;57631;52.218;0.108;2022-09-11T00:27:03;101924.70;;;20.16;57.51
70242;BME280;57631;52.218;0.108;2022-09-11T00:29:28;101927.59;;;20.18;58.35
70242;BME280;57631;52.218;0.108;2022-09-11T00:31:53;101934.26;;;19.12;60.36
70242;BME280;57631;52.218;0.108;2022-09-11T00:34:18;101939.68;;;19.39;60.12
70242;BME280;57631;52.218;0.108;2022-09-11T00:36:43;101942.42;;;19.30;59.83
70242;BME280;57631;52.218;0.108;2022-09-11T00:39:10;101945.20;;;19.09;60.56
70242;BME280;57631;52.218;0.108;2022-09-11T00:41:36;101936.33;;;19.79;59.52
70242;BME280;57631;52.218;0.108;2022-09-11T00:44:03;101930.11;;;19.67;59.15
70242;BME280;57631;52.218;0.108;2022-09-11T00:46:33;101929.56;;;20.42;58.34
70242;BME280;57631;52.218;0.108;2022-09-11T00:48:51;101927.28;;;20.07;59.06
70242;BME280;57631;52.218;0.108;2022-09-11T00:51:19;101929.78;;;19.64;59.82
70242;BME280;57631;52.218;0.108;2022-09-11T00:53:41;101926.71;;;19.48;60.02
70242;BME280;57631;52.218;0.108;2022-09-11T00:56:08;101921.56;;;19.30;60.24
70242;BME280;57631;52.218;0.108;2022-09-11T00:58:34;101917.35;;;19.35;59.90
70242;BME280;57631;52.218;0.108;2022-09-11T01:00:58;101917.14;;;19.07;60.61
70242;BME280;57631;52.218;0.108;2022-09-11T01:03:24;101917.08;;;19.05;60.73
70242;BME280;57631;52.218;0.108;2022-09-11T01:05:49;101916.52;;;19.03;60.35
70242;BME280;57631;52.218;0.108;2022-09-11T01:08:14;101909.67;;;19.49;59.54
70242;BME280;57631;52.218;0.108;2022-09-11T01:10:47;101909.46;;;19.78;59.73
70242;BME280;57631;52.218;0.108;2022-09-11T01:13:09;101911.74;;;19.10;60.26
70242;BME280;57631;52.218;0.108;2022-09-11T01:15:37;101914.32;;;18.77;60.64
70242;BME280;57631;52.218;0.108;2022-09-11T01:18:01;101914.73;;;18.70;61.08
70242;BME280;57631;52.218;0.108;2022-09-11T01:20:28;101914.17;;;18.86;60.75
70242;BME280;57631;52.218;0.108;2022-09-11T01:22:58;101912.38;;;18.73;60.41
70242;BME280;57631;52.218;0.108;2022-09-11T01:25:22;101916.62;;;19.31;59.55
70242;BME280;57631;52.218;0.108;2022-09-11T01:27:41;101910.59;;;19.53;59.04
70242;BME280;57631;52.218;0.108;2022-09-11T01:30:05;101906.32;;;19.55;58.07
70242;BME280;57631;52.218;0.108;2022-09-11T01:32:33;101909.43;;;19.60;58.10
70242;BME280;57631;52.218;0.108;2022-09-11T01:34:59;101912.99;;;19.21;59.06
70242;BME280;57631;52.218;0.108;2022-09-11T01:37:23;101917.63;;;18.86;59.66
70242;BME280;57631;52.218;0.108;2022-09-11T01:39:49;101916.53;;;18.39;60.39
70242;BME280;57631;52.218;0.108;2022-09-11T01:42:11;101918.51;;;18.54;60.71
70242;BME280;57631;52.218;0.108;2022-09-11T01:44:36;101923.16;;;18.20;61.04
70242;BME280;57631;52.218;0.108;2022-09-11T01:47:01;101925.40;;;18.65;61.56
70242;BME280;57631;52.218;0.108;2022-09-11T01:49:30;101922.73;;;18.48;61.53
70242;BME280;57631;52.218;0.108;2022-09-11T01:51:54;101921.60;;;18.59;59.94
70242;BME280;57631;52.218;0.108;2022-09-11T01:54:18;101920.51;;;18.30;61.27
70242;BME280;57631;52.218;0.108;2022-09-11T01:56:46;101918.92;;;18.56;60.99
70242;BME280;57631;52.218;0.108;2022-09-11T01:59:10;101918.01;;;18.62;61.88
70242;BME280;57631;52.218;0.108;2022-09-11T02:01:34;101919.29;;;18.53;62.08
70242;BME280;57631;52.218;0.108;2022-09-11T02:04:00;101921.25;;;18.13;63.98
70242;BME280;57631;52.218;0.108;2022-09-11T02:06:26;101921.64;;;18.15;63.66
70242;BME280;57631;52.218;0.108;2022-09-11T02:08:50;101920.69;;;17.80;64.36
70242;BME280;57631;52.218;0.108;2022-09-11T02:11:15;101922.73;;;17.99;64.10
70242;BME280;57631;52.218;0.108;2022-09-11T02:13:45;101925.45;;;18.11;63.92
70242;BME280;57631;52.218;0.108;2022-09-11T02:16:09;101925.79;;;18.26;63.05
70242;BME280;57631;52.218;0.108;2022-09-11T02:18:37;101928.19;;;18.14;62.91
70242;BME280;57631;52.218;0.108;2022-09-11T02:20:55;101931.58;;;18.71;61.65
70242;BME280;57631;52.218;0.108;2022-09-11T02:23:20;101933.31;;;18.97;61.92
70242;BME280;57631;52.218;0.108;2022-09-11T02:25:46;101933.72;;;18.67;62.23
70242;BME280;57631;52.218;0.108;2022-09-11T02:28:11;101933.94;;;18.89;61.76
70242;BME280;57631;52.218;0.108;2022-09-11T02:30:37;101933.88;;;18.39;61.89
70242;BME280;57631;52.218;0.108;2022-09-11T02:33:02;101935.67;;;19.09;60.72
70242;BME280;57631;52.218;0.108;2022-09-11T02:35:35;101935.61;;;19.25;60.78
70242;BME280;57631;52.218;0.108;2022-09-11T02:38:00;101936.15;;;18.68;63.12
70242;BME280;57631;52.218;0.108;2022-09-11T02:40:30;101935.46;;;18.12;64.62
70242;BME280;57631;52.218;0.108;2022-09-11T02:42:58;101932.63;;;18.08;65.75
70242;BME280;57631;52.218;0.108;2022-09-11T02:45:18;101936.46;;;18.21;64.88
70242;BME280;57631;52.218;0.108;2022-09-11T02:47:42;101934.30;;;18.42;64.05
70242;BME280;57631;52.218;0.108;2022-09-11T02:50:07;101937.27;;;18.27;63.91
70242;BME280;57631;52.218;0.108;2022-09-11T02:52:36;101937.70;;;18.61;63.18
70242;BME280;57631;52.218;0.108;2022-09-11T02:54:57;101937.79;;;18.99;62.43
70242;BME280;57631;52.218;0.108;2022-09-11T02:57:22;101936.39;;;19.26;61.27
70242;BME280;57631;52.218;0.108;2022-09-11T02:59:47;101939.29;;;19.19;61.52
70242;BME280;57631;52.218;0.108;2022-09-11T03:02:11;101936.70;;;19.41;60.72
70242;BME280;57631;52.218;0.108;2022-09-11T03:04:34;101938.11;;;19.50;61.17
70242;BME280;57631;52.218;0.108;2022-09-11T03:07:00;101935.82;;;19.57;61.02
70242;BME280;57631;52.218;0.108;2022-09-11T03:09:25;101935.75;;;19.22;62.24
70242;BME280;57631;52.218;0.108;2022-09-11T03:11:51;101940.81;;;18.62;63.99
70242;BME280;57631;52.218;0.108;2022-09-11T03:14:16;101943.29;;;19.28;63.37
70242;BME280;57631;52.218;0.108;2022-09-11T03:16:42;101944.54;;;18.84;63.75
70242;BME280;57631;52.218;0.108;2022-09-11T03:19:07;101941.80;;;19.13;63.17
70242;BME280;57631;52.218;0.108;2022-09-11T03:21:32;101943.85;;;18.86;64.15
70242;BME280;57631;52.218;0.108;2022-09-11T03:23:57;101941.46;;;19.31;63.55
70242;BME280;57631;52.218;0.108;2022-09-11T03:26:23;101945.69;;;19.42;63.94
70242;BME280;57631;52.218;0.108;2022-09-11T03:28:48;101949.11;;;19.06;63.55
70242;BME280;57631;52.218;0.108;2022-09-11T03:31:13;101946.25;;;19.11;63.58
70242;BME280;57631;52.218;0.108;2022-09-11T03:33:39;101944.49;;;19.51;62.19
70242;BME280;57631;52.218;0.108;2022-09-11T03:36:05;101938.57;;;19.84;61.91
70242;BME280;57631;52.218;0.108;2022-09-11T03:38:29;101940.62;;;19.30;62.66
70242;BME280;57631;52.218;0.108;2022-09-11T03:40:54;101936.14;;;19.56;61.94
70242;BME280;57631;52.218;0.108;2022-09-11T03:43:19;101936.08;;;19.46;63.21
70242;BME280;57631;52.218;0.108;2022-09-11T03:45:47;101937.11;;;19.35;63.93
70242;BME280;57631;52.218;0.108;2022-09-11T03:48:10;101937.89;;;18.77;65.87
70242;BME280;57631;52.218;0.108;2022-09-11T03:50:35;101932.65;;;18.74;65.20
70242;BME280;57631;52.218;0.108;2022-09-11T03:53:00;101935.21;;;18.88;65.55
70242;BME280;57631;52.218;0.108;2022-09-11T03:55:26;101932.95;;;19.09;65.15
70242;BME280;57631;52.218;0.108;2022-09-11T03:57:51;101936.28;;;18.84;65.98
70242;BME280;57631;52.218;0.108;2022-09-11T04:00:16;101930.48;;;19.15;65.13
70242;BME280;57631;52.218;0.108;2022-09-11T04:02:42;101928.73;;;19.16;65.39
70242;BME280;57631;52.218;0.108;2022-09-11T04:05:08;101927.70;;;19.46;64.52
70242;BME280;57631;52.218;0.108;2022-09-11T04:07:33;101924.81;;;19.06;65.12
70242;BME280;57631;52.218;0.108;2022-09-11T04:09:58;101921.29;;;19.03;64.97
70242;BME280;57631;52.218;0.108;2022-09-11T04:12:23;101911.64;;;19.78;63.05
70242;BME280;57631;52.218;0.108;2022-09-11T04:14:48;101911.83;;;19.43;63.00
70242;BME280;57631;52.218;0.108;2022-09-11T04:17:14;101914.26;;;19.66;62.60
70242;BME280;57631;52.218;0.108;2022-09-11T04:19:39;101916.64;;;19.96;61.73
70242;BME280;57631;52.218;0.108;2022-09-11T04:22:04;101912.05;;;19.38;63.33
70242;BME280;57631;52.218;0.108;2022-09-11T04:24:30;101916.05;;;18.88;64.26
70242;BME280;57631;52.218;0.108;2022-09-11T04:26:55;101913.23;;;19.64;62.25
70242;BME280;57631;52.218;0.108;2022-09-11T04:29:20;101915.51;;;20.05;60.52
70242;BME280;57631;52.218;0.108;2022-09-11T04:31:45;101912.11;;;20.04;61.85
70242;BME280;57631;52.218;0.108;2022-09-11T04:34:11;101914.14;;;19.42;64.30
70242;BME280;57631;52.218;0.108;2022-09-11T04:36:36;101917.81;;;18.75;64.52
70242;BME280;57631;52.218;0.108;2022-09-11T04:39:02;101913.87;;;19.27;63.54
70242;BME280;57631;52.218;0.108;2022-09-11T04:41:28;101914.81;;;20.00;62.57
70242;BME280;57631;52.218;0.108;2022-09-11T04:43:53;101920.04;;;19.89;61.65
70242;BME280;57631;52.218;0.108;2022-09-11T04:46:18;101924.94;;;20.04;61.54
70242;BME280;57631;52.218;0.108;2022-09-11T04:48:43;101921.21;;;19.97;60.67
70242;BME280;57631;52.218;0.108;2022-09-11T04:51:08;101915.83;;;20.40;59.77
70242;BME280;57631;52.218;0.108;2022-09-11T04:53:34;101916.35;;;19.81;60.78
70242;BME280;57631;52.218;0.108;2022-09-11T04:56:01;101918.79;;;18.62;64.46
70242;BME280;57631;52.218;0.108;2022-09-11T04:58:24;101914.78;;;19.83;61.52
70242;BME280;57631;52.218;0.108;2022-09-11T05:00:49;101916.92;;;20.00;61.04
70242;BME280;57631;52.218;0.108;2022-09-11T05:03:15;101913.32;;;19.45;61.85
70242;BME280;57631;52.218;0.108;2022-09-11T05:05:40;101916.45;;;18.87;63.39
70242;BME280;57631;52.218;0.108;2022-09-11T05:08:05;101914.03;;;19.17;63.14
70242;BME280;57631;52.218;0.108;2022-09-11T05:10:36;101915.41;;;19.29;62.85
70242;BME280;57631;52.218;0.108;2022-09-11T05:12:56;101913.33;;;19.81;61.20
70242;BME280;57631;52.218;0.108;2022-09-11T05:15:22;101917.88;;;19.12;63.29
70242;BME280;57631;52.218;0.108;2022-09-11T05:17:47;101918.77;;;18.70;63.67
70242;BME280;57631;52.218;0.108;2022-09-11T05:20:13;101916.73;;;19.36;62.72
70242;BME280;57631;52.218;0.108;2022-09-11T05:22:38;101916.26;;;19.50;63.23
70242;BME280;57631;52.218;0.108;2022-09-11T05:25:04;101919.65;;;19.38;62.40
70242;BME280;57631;52.218;0.108;2022-09-11T05:27:29;101924.37;;;18.65;63.71
70242;BME280;57631;52.218;0.108;2022-09-11T05:29:54;101923.27;;;19.34;63.61
70242;BME280;57631;52.218;0.108;2022-09-11T05:32:19;101926.70;;;18.68;63.87
70242;BME280;57631;52.218;0.108;2022-09-11T05:34:45;101928.47;;;18.73;63.56
70242;BME280;57631;52.218;0.108;2022-09-11T05:37:10;101931.98;;;18.91;63.64
70242;BME280;57631;52.218;0.108;2022-09-11T05:39:36;101929.25;;;19.42;62.70
70242;BME280;57631;52.218;0.108;2022-09-11T05:42:01;101931.55;;;19.48;61.58
70242;BME280;57631;52.218;0.108;2022-09-11T05:44:27;101934.45;;;19.94;60.64
70242;BME280;57631;52.218;0.108;2022-09-11T05:46:52;101936.73;;;20.12;60.10
70242;BME280;57631;52.218;0.108;2022-09-11T05:49:17;101932.07;;;19.59;62.26
70242;BME280;57631;52.218;0.108;2022-09-11T05:51:43;101930.68;;;19.21;62.34
70242;BME280;57631;52.218;0.108;2022-09-11T05:54:08;101925.34;;;19.86;62.08
70242;BME280;57631;52.218;0.108;2022-09-11T05:56:33;101925.12;;;19.24;63.70
70242;BME280;57631;52.218;0.108;2022-09-11T05:58:59;101926.77;;;18.74;64.64
70242;BME280;57631;52.218;0.108;2022-09-11T06:01:26;101926.63;;;18.80;63.92
70242;BME280;57631;52.218;0.108;2022-09-11T06:03:50;101926.46;;;19.10;63.63
70242;BME280;57631;52.218;0.108;2022-09-11T06:06:17;101928.72;;;19.33;63.47
70242;BME280;57631;52.218;0.108;2022-09-11T06:08:41;101929.52;;;19.66;62.24
70242;BME280;57631;52.218;0.108;2022-09-11T06:11:06;101934.85;;;19.25;64.18
70242;BME280;57631;52.218;0.108;2022-09-11T06:13:33;101937.35;;;19.01;64.11
70242;BME280;57631;52.218;0.108;2022-09-11T06:15:56;101934.39;;;19.07;63.45
70242;BME280;57631;52.218;0.108;2022-09-11T06:18:22;101936.32;;;17.77;67.04
70242;BME280;57631;52.218;0.108;2022-09-11T06:20:55;101938.28;;;18.65;64.54
70242;BME280;57631;52.218;0.108;2022-09-11T06:23:13;101934.43;;;18.93;63.50
70242;BME280;57631;52.218;0.108;2022-09-11T06:25:38;101935.18;;;19.24;63.65
70242;BME280;57631;52.218;0.108;2022-09-11T06:28:03;101939.16;;;18.91;64.24
70242;BME280;57631;52.218;0.108;2022-09-11T06:30:29;101939.62;;;19.07;63.09
70242;BME280;57631;52.218;0.108;2022-09-11T06:32:54;101940.42;;;18.50;65.62
70242;BME280;57631;52.218;0.108;2022-09-11T06:35:19;101942.97;;;18.10;67.43
70242;BME280;57631;52.218;0.108;2022-09-11T06:37:45;101941.95;;;18.62;65.62
70242;BME280;57631;52.218;0.108;2022-09-11T06:40:10;101943.94;;;18.78;64.79
70242;BME280;57631;52.218;0.108;2022-09-11T06:42:36;101945.04;;;18.45;64.60
70242;BME280;57631;52.218;0.108;2022-09-11T06:45:01;101945.09;;;18.82;64.15
70242;BME280;57631;52.218;0.108;2022-09-11T06:47:27;101947.19;;;19.09;63.41
70242;BME280;57631;52.218;0.108;2022-09-11T06:49:52;101949.92;;;18.29;64.89
70242;BME280;57631;52.218;0.108;2022-09-11T06:52:17;101950.70;;;17.45;67.91
70242;BME280;57631;52.218;0.108;2022-09-11T06:54:43;101949.07;;;18.77;64.70
70242;BME280;57631;52.218;0.108;2022-09-11T06:57:08;101944.22;;;19.40;61.84
70242;BME280;57631;52.218;0.108;2022-09-11T06:59:34;101945.89;;;19.08;64.65
70242;BME280;57631;52.218;0.108;2022-09-11T07:01:59;101945.04;;;18.31;65.42
70242;BME280;57631;52.218;0.108;2022-09-11T07:04:24;101940.92;;;18.78;64.19
70242;BME280;57631;52.218;0.108;2022-09-11T07:06:50;101944.21;;;16.70;69.11
70242;BME280;57631;52.218;0.108;2022-09-11T07:09:15;101947.17;;;17.62;66.65
70242;BME280;57631;52.218;0.108;2022-09-11T07:11:41;101948.31;;;17.68;67.65
70242;BME280;57631;52.218;0.108;2022-09-11T07:14:06;101950.49;;;18.86;64.71
70242;BME280;57631;52.218;0.108;2022-09-11T07:16:31;101954.29;;;17.26;68.86
70242;BME280;57631;52.218;0.108;2022-09-11T07:18:57;101957.16;;;17.63;67.69
70242;BME280;57631;52.218;0.108;2022-09-11T07:21:24;101959.49;;;17.86;66.97
70242;BME280;57631;52.218;0.108;2022-09-11T07:23:49;101965.56;;;18.12;66.08
70242;BME280;57631;52.218;0.108;2022-09-11T07:26:13;101963.83;;;18.14;66.08
70242;BME280;57631;52.218;0.108;2022-09-11T07:28:39;101960.90;;;19.34;62.28
70242;BME280;57631;52.218;0.108;2022-09-11T07:31:05;101961.77;;;18.89;63.20
70242;BME280;57631;52.218;0.108;2022-09-11T07:33:29;101962.96;;;16.68;68.74
70242;BME280;57631;52.218;0.108;2022-09-11T07:35:55;101965.83;;;17.90;66.40
70242;BME280;57631;52.218;0.108;2022-09-11T07:38:20;101959.19;;;19.04;63.02
70242;BME280;57631;52.218;0.108;2022-09-11T07:40:46;101957.25;;;18.94;65.79
70242;BME280;57631;52.218;0.108;2022-09-11T07:43:11;101959.13;;;18.75;64.69
70242;BME280;57631;52.218;0.108;2022-09-11T07:45:36;101964.23;;;17.64;68.75
70242;BME280;57631;52.218;0.108;2022-09-11T07:48:02;101967.61;;;16.80;71.47
70242;BME280;57631;52.218;0.108;2022-09-11T07:50:28;101966.66;;;17.92;68.66
70242;BME280;57631;52.218;0.108;2022-09-11T07:52:54;101961.42;;;18.40;65.70
70242;BME280;57631;52.218;0.108;2022-09-11T07:55:18;101963.91;;;18.87;66.19
70242;BME280;57631;52.218;0.108;2022-09-11T07:57:43;101968.32;;;19.24;64.13
70242;BME280;57631;52.218;0.108;2022-09-11T08:00:09;101970.07;;;19.71;62.62
70242;BME280;57631;52.218;0.108;2022-09-11T08:02:33;101966.84;;;20.02;61.17
70242;BME280;57631;52.218;0.108;2022-09-11T08:04:59;101973.11;;;19.92;62.01
70242;BME280;57631;52.218;0.108;2022-09-11T08:07:24;101971.15;;;19.51;63.39
70242;BME280;57631;52.218;0.108;2022-09-11T08:09:49;101971.79;;;19.34;63.82
70242;BME280;57631;52.218;0.108;2022-09-11T08:12:15;101974.52;;;19.05;63.01
70242;BME280;57631;52.218;0.108;2022-09-11T08:14:40;101971.45;;;20.10;60.47
70242;BME280;57631;52.218;0.108;2022-09-11T08:17:05;101969.06;;;20.12;59.71
70242;BME280;57631;52.218;0.108;2022-09-11T08:19:31;101967.79;;;20.03;60.46
70242;BME280;57631;52.218;0.108;2022-09-11T08:21:56;101963.34;;;20.41;59.36
70242;BME280;57631;52.218;0.108;2022-09-11T08:24:21;101951.59;;;21.18;56.84
70242;BME280;57631;52.218;0.108;2022-09-11T08:26:47;101951.45;;;20.31;61.01
70242;BME280;57631;52.218;0.108;2022-09-11T08:29:12;101952.99;;;19.84;61.55
70242;BME280;57631;52.218;0.108;2022-09-11T08:31:37;101958.84;;;19.70;62.42
70242;BME280;57631;52.218;0.108;2022-09-11T08:34:03;101959.25;;;19.11;65.45
70242;BME280;57631;52.218;0.108;2022-09-11T08:36:28;101951.31;;;19.51;64.94
70242;BME280;57631;52.218;0.108;2022-09-11T08:38:53;101944.64;;;19.71;62.62
70242;BME280;57631;52.218;0.108;2022-09-11T08:41:29;101943.82;;;20.52;61.25
70242;BME280;57631;52.218;0.108;2022-09-11T08:43:47;101943.95;;;19.97;62.49
70242;BME280;57631;52.218;0.108;2022-09-11T08:46:10;101951.26;;;19.04;65.27
70242;BME280;57631;52.218;0.108;2022-09-11T08:48:44;101955.34;;;18.70;65.53
70242;BME280;57631;52.218;0.108;2022-09-11T08:51:00;101955.22;;;18.60;67.42
70242;BME280;57631;52.218;0.108;2022-09-11T08:53:27;101952.92;;;19.04;67.37
70242;BME280;57631;52.218;0.108;2022-09-11T08:55:55;101953.71;;;17.93;68.24
70242;BME280;57631;52.218;0.108;2022-09-11T08:58:23;101950.43;;;17.57;71.62
70242;BME280;57631;52.218;0.108;2022-09-11T09:00:46;101946.18;;;19.35;65.24
70242;BME280;57631;52.218;0.108;2022-09-11T09:05:40;101942.78;;;20.36;62.65
70242;BME280;57631;52.218;0.108;2022-09-11T09:08:06;101941.48;;;20.16;63.00
70242;BME280;57631;52.218;0.108;2022-09-11T09:10:33;101945.82;;;19.14;65.13
70242;BME280;57631;52.218;0.108;2022-09-11T09:12:54;101938.83;;;19.62;63.18
70242;BME280;57631;52.218;0.108;2022-09-11T09:15:23;101941.10;;;20.96;60.86
70242;BME280;57631;52.218;0.108;2022-09-11T09:17:41;101942.70;;;20.48;61.97
70242;BME280;57631;52.218;0.108;2022-09-11T09:20:09;101941.04;;;20.66;61.41
70242;BME280;57631;52.218;0.108;2022-09-11T09:22:36;101938.32;;;20.45;60.30
70242;BME280;57631;52.218;0.108;2022-09-11T09:24:57;101943.03;;;19.66;62.55
70242;BME280;57631;52.218;0.108;2022-09-11T09:27:25;101943.61;;;21.18;59.46
70242;BME280;57631;52.218;0.108;2022-09-11T09:29:51;101949.44;;;19.52;63.23
70242;BME280;57631;52.218;0.108;2022-09-11T09:32:14;101950.15;;;19.89;62.17
70242;BME280;57631;52.218;0.108;2022-09-11T09:34:37;101948.73;;;20.13;62.72
70242;BME280;57631;52.218;0.108;2022-09-11T09:37:04;101946.25;;;21.30;59.33
70242;BME280;57631;52.218;0.108;2022-09-11T09:39:28;101953.07;;;19.90;60.90
70242;BME280;57631;52.218;0.108;2022-09-11T09:42:05;101952.79;;;20.90;59.20
70242;BME280;57631;52.218;0.108;2022-09-11T09:44:25;101951.60;;;21.12;58.95
70242;BME280;57631;52.218;0.108;2022-09-11T09:46:45;101949.38;;;21.48;57.93
70242;BME280;57631;52.218;0.108;2022-09-11T09:49:09;101949.46;;;22.67;54.43
70242;BME280;57631;52.218;0.108;2022-09-11T09:51:34;101952.52;;;19.57;60.38
70242;BME280;57631;52.218;0.108;2022-09-11T09:54:00;101951.86;;;20.88;58.78
70242;BME280;57631;52.218;0.108;2022-09-11T09:56:25;101957.94;;;20.26;60.95
70242;BME280;57631;52.218;0.108;2022-09-11T09:58:56;101954.09;;;21.59;60.29
70242;BME280;57631;52.218;0.108;2022-09-11T10:03:41;101943.36;;;23.76;53.01
70242;BME280;57631;52.218;0.108;2022-09-11T10:06:06;101939.43;;;24.16;50.80
70242;BME280;57631;52.218;0.108;2022-09-11T10:08:33;101937.40;;;22.98;53.05
70242;BME280;57631;52.218;0.108;2022-09-11T10:10:58;101929.42;;;23.73;51.61
70242;BME280;57631;52.218;0.108;2022-09-11T10:13:23;101927.76;;;24.39;49.71
70242;BME280;57631;52.218;0.108;2022-09-11T10:15:48;101925.54;;;23.92;49.52
70242;BME280;57631;52.218;0.108;2022-09-11T10:18:21;101926.19;;;24.21;50.34
70242;BME280;57631;52.218;0.108;2022-09-11T10:20:38;101934.13;;;23.35;51.68
70242;BME280;57631;52.218;0.108;2022-09-11T10:25:29;101922.13;;;25.73;46.40
70242;BME280;57631;52.218;0.108;2022-09-11T10:28:00;101919.69;;;26.61;45.30
70242;BME280;57631;52.218;0.108;2022-09-11T10:30:26;101924.09;;;23.80;49.30
70242;BME280;57631;52.218;0.108;2022-09-11T10:32:44;101914.23;;;26.40;44.60
70242;BME280;57631;52.218;0.108;2022-09-11T10:35:10;101917.61;;;21.77;54.65
70242;BME280;57631;52.218;0.108;2022-09-11T10:37:35;101910.47;;;24.62;49.41
70242;BME280;57631;52.218;0.108;2022-09-11T10:40:04;101911.43;;;24.69;49.22
70242;BME280;57631;52.218;0.108;2022-09-11T10:42:28;101910.62;;;25.71;47.27
70242;BME280;57631;52.218;0.108;2022-09-11T10:44:52;101910.78;;;25.44;47.04
70242;BME280;57631;52.218;0.108;2022-09-11T10:47:22;101915.98;;;24.24;48.53
70242;BME280;57631;52.218;0.108;2022-09-11T10:49:42;101910.25;;;25.00;48.04
70242;BME280;57631;52.218;0.108;2022-09-11T10:52:15;101911.90;;;23.18;52.04
70242;BME280;57631;52.218;0.108;2022-09-11T10:54:42;101905.26;;;24.52;49.55
70242;BME280;57631;52.218;0.108;2022-09-11T10:57:04;101903.27;;;24.41;49.88
70242;BME280;57631;52.218;0.108;2022-09-11T10:59:29;101898.11;;;24.92;48.40
70242;BME280;57631;52.218;0.108;2022-09-11T11:01:49;101896.61;;;24.50;48.87
70242;BME280;57631;52.218;0.108;2022-09-11T11:04:15;101898.91;;;23.26;51.21
70242;BME280;57631;52.218;0.108;2022-09-11T11:06:48;101895.22;;;25.22;48.38
70242;BME280;57631;52.218;0.108;2022-09-11T11:09:18;101895.83;;;25.01;48.21
70242;BME280;57631;52.218;0.108;2022-09-11T11:11:41;101889.65;;;25.16;47.32
70242;BME280;57631;52.218;0.108;2022-09-11T11:14:08;101890.04;;;24.18;50.88
70242;BME280;57631;52.218;0.108;2022-09-11T11:16:27;101886.56;;;24.26;50.95
70242;BME280;57631;52.218;0.108;2022-09-11T11:18:59;101884.32;;;23.44;51.78
70242;BME280;57631;52.218;0.108;2022-09-11T11:21:21;101884.42;;;24.53;48.80
70242;BME280;57631;52.218;0.108;2022-09-11T11:23:45;101882.45;;;23.51;50.65
70242;BME280;57631;52.218;0.108;2022-09-11T11:26:15;101883.27;;;23.14;52.13
70242;BME280;57631;52.218;0.108;2022-09-11T11:28:44;101877.32;;;25.27;48.33
70242;BME280;57631;52.218;0.108;2022-09-11T11:31:00;101875.48;;;24.35;49.69
70242;BME280;57631;52.218;0.108;2022-09-11T11:33:31;101868.94;;;25.53;46.30
70242;BME280;57631;52.218;0.108;2022-09-11T11:35:51;101864.59;;;26.37;45.20
70242;BME280;57631;52.218;0.108;2022-09-11T11:38:15;101866.53;;;27.92;41.91
70242;BME280;57631;52.218;0.108;2022-09-11T11:40:39;101868.20;;;26.67;43.61
70242;BME280;57631;52.218;0.108;2022-09-11T11:43:04;101861.65;;;27.63;42.38
70242;BME280;57631;52.218;0.108;2022-09-11T11:45:30;101860.58;;;27.33;42.61
70242;BME280;57631;52.218;0.108;2022-09-11T11:47:52;101860.12;;;26.48;44.97
70242;BME280;57631;52.218;0.108;2022-09-11T11:50:24;101863.26;;;27.01;44.32
70242;BME280;57631;52.218;0.108;2022-09-11T11:52:48;101852.85;;;26.75;45.31
70242;BME280;57631;52.218;0.108;2022-09-11T11:55:14;101850.62;;;26.75;44.50
70242;BME280;57631;52.218;0.108;2022-09-11T11:57:37;101851.54;;;26.26;45.80
70242;BME280;57631;52.218;0.108;2022-09-11T12:00:03;101849.61;;;25.74;47.06
70242;BME280;57631;52.218;0.108;2022-09-11T12:02:28;101848.47;;;26.11;45.94
70242;BME280;57631;52.218;0.108;2022-09-11T12:04:51;101841.09;;;27.40;42.64
70242;BME280;57631;52.218;0.108;2022-09-11T12:07:17;101834.76;;;26.81;44.24
70242;BME280;57631;52.218;0.108;2022-09-11T12:09:39;101832.61;;;26.57;44.74
70242;BME280;57631;52.218;0.108;2022-09-11T12:12:06;101827.48;;;27.62;43.81
70242;BME280;57631;52.218;0.108;2022-09-11T12:14:30;101822.54;;;28.46;40.89
70242;BME280;57631;52.218;0.108;2022-09-11T12:16:55;101827.21;;;26.87;42.72
70242;BME280;57631;52.218;0.108;2022-09-11T12:19:21;101823.98;;;25.67;43.03
70242;BME280;57631;52.218;0.108;2022-09-11T12:24:14;101824.65;;;26.07;42.01
70242;BME280;57631;52.218;0.108;2022-09-11T12:26:38;101821.73;;;24.49;44.16
70242;BME280;57631;52.218;0.108;2022-09-11T12:33:53;101815.59;;;27.62;39.93
70242;BME280;57631;52.218;0.108;2022-09-11T12:36:20;101815.22;;;27.53;38.96
70242;BME280;57631;52.218;0.108;2022-09-11T12:38:46;101809.95;;;27.27;39.27
70242;BME280;57631;52.218;0.108;2022-09-11T12:41:13;101804.75;;;26.90;40.52
70242;BME280;57631;52.218;0.108;2022-09-11T12:45:58;101800.23;;;26.41;41.69
70242;BME280;57631;52.218;0.108;2022-09-11T12:48:31;101794.80;;;26.28;41.24
70242;BME280;57631;52.218;0.108;2022-09-11T12:50:51;101791.22;;;25.58;42.39
70242;BME280;57631;52.218;0.108;2022-09-11T12:53:17;101794.53;;;26.31;41.50
70242;BME280;57631;52.218;0.108;2022-09-11T12:55:41;101785.77;;;28.10;38.64